Strona główna
METAR-TAF:

METAR-TAF

Lotnisko :

Port lotniczy Wyspa Bożego Narodzenia

Wyspa Bożego Narodzenia, Australia

Szerokość geograficzna: 10-26S, Długość geograficzna: 105-41E, wysokość: 279 m

Aktualna obserwacja pogody

Raport powstał 36 minut temu, godzina 16:00 UTC
Wiatr 6 kt od południowy wschód
Temperatura 25°C
Wilgotność 83%
Ciśnienie 1013 hPa
Widzialność 10 km lub więcej
Rozproszone chmury na wysokości 1800 ft

METAR: YPXM 171600Z AUTO 13006KT 9999 // SCT018 25/22 Q1013

czas: 23:36 (16:36 UTC)

Prognoza

Raport powstał 5 godziny i 24 minut temu, godzina 11:12 UTC
Prognoza ważna od 17 godzina 12 UTC do 18 godzina 12 UTC
Wiatr 10 kt od wschodnio-południowy wschód
Widzialność 10 km lub więcej
Przerywane chmury na wysokości 1800 ft

TAF: YPXM 171112Z 1712/1812 11010KT 9999 BKN018

Obserwacja i prognoza pogody dla ponad 4000 lotnisk (raport METAR i TAF).

Dostępne stacje oznaczono żółtymi i czerwonymi punktami na mapie.

Najedź kursorem aby zobaczyć nazwę stacji.

Kliknij aby zobaczyć obserwacje i prognozy pogody.

Aby zmienić mapę: kliknij na zielony przycisk z czarnym krzyżykiem, aby powiększyć; na zielony przycisk z myślnikiem, aby pomniejszyć; na zielone strzałki, aby przejść do map sąsiednich.


METAR-TAF: